sensor_id;sensor_type;location;lat;lon;timestamp;P1;durP1;ratioP1;P2;durP2;ratioP2
19951;SDS011;10137;49.406;19.484;2024-02-15T00:00:30;9.80;;;5.90;;
19951;SDS011;10137;49.406;19.484;2024-02-15T00:02:59;11.93;;;7.57;;
19951;SDS011;10137;49.406;19.484;2024-02-15T00:05:26;34.77;;;13.83;;
19951;SDS011;10137;49.406;19.484;2024-02-15T00:07:53;18.47;;;8.13;;
19951;SDS011;10137;49.406;19.484;2024-02-15T00:10:20;12.17;;;6.87;;
19951;SDS011;10137;49.406;19.484;2024-02-15T00:12:50;16.80;;;8.27;;
19951;SDS011;10137;49.406;19.484;2024-02-15T00:15:17;18.13;;;8.07;;
19951;SDS011;10137;49.406;19.484;2024-02-15T00:17:44;14.27;;;7.33;;
19951;SDS011;10137;49.406;19.484;2024-02-15T00:20:13;8.57;;;5.27;;
19951;SDS011;10137;49.406;19.484;2024-02-15T00:22:41;11.97;;;6.10;;
19951;SDS011;10137;49.406;19.484;2024-02-15T00:25:08;9.50;;;5.70;;
19951;SDS011;10137;49.406;19.484;2024-02-15T00:27:36;11.50;;;6.33;;
19951;SDS011;10137;49.406;19.484;2024-02-15T00:30:03;13.50;;;7.70;;
19951;SDS011;10137;49.406;19.484;2024-02-15T00:32:32;16.13;;;6.63;;
19951;SDS011;10137;49.406;19.484;2024-02-15T00:34:59;14.27;;;6.63;;
19951;SDS011;10137;49.406;19.484;2024-02-15T00:37:27;18.00;;;7.30;;
19951;SDS011;10137;49.406;19.484;2024-02-15T00:39:54;12.63;;;6.90;;
19951;SDS011;10137;49.406;19.484;2024-02-15T00:42:21;11.73;;;6.40;;
19951;SDS011;10137;49.406;19.484;2024-02-15T00:44:48;9.93;;;5.87;;
19951;SDS011;10137;49.406;19.484;2024-02-15T00:47:15;11.07;;;6.07;;
19951;SDS011;10137;49.406;19.484;2024-02-15T00:49:45;12.83;;;6.57;;
19951;SDS011;10137;49.406;19.484;2024-02-15T00:52:12;12.43;;;7.10;;
19951;SDS011;10137;49.406;19.484;2024-02-15T00:54:40;13.17;;;6.80;;
19951;SDS011;10137;49.406;19.484;2024-02-15T00:57:07;11.73;;;6.93;;
19951;SDS011;10137;49.406;19.484;2024-02-15T00:59:33;11.47;;;6.90;;
19951;SDS011;10137;49.406;19.484;2024-02-15T01:02:01;19.33;;;8.93;;
19951;SDS011;10137;49.406;19.484;2024-02-15T01:04:28;19.33;;;8.57;;
19951;SDS011;10137;49.406;19.484;2024-02-15T01:06:55;15.27;;;8.13;;
19951;SDS011;10137;49.406;19.484;2024-02-15T01:09:22;14.53;;;7.63;;
19951;SDS011;10137;49.406;19.484;2024-02-15T01:11:50;16.03;;;8.27;;
19951;SDS011;10137;49.406;19.484;2024-02-15T01:14:17;18.63;;;8.77;;
19951;SDS011;10137;49.406;19.484;2024-02-15T01:16:44;18.30;;;7.93;;
19951;SDS011;10137;49.406;19.484;2024-02-15T01:19:11;13.67;;;7.93;;
19951;SDS011;10137;49.406;19.484;2024-02-15T01:21:38;14.67;;;9.03;;
19951;SDS011;10137;49.406;19.484;2024-02-15T01:24:05;17.83;;;8.93;;
19951;SDS011;10137;49.406;19.484;2024-02-15T01:26:32;13.57;;;8.47;;
19951;SDS011;10137;49.406;19.484;2024-02-15T01:29:01;14.87;;;8.20;;
19951;SDS011;10137;49.406;19.484;2024-02-15T01:31:28;13.43;;;7.47;;
19951;SDS011;10137;49.406;19.484;2024-02-15T01:33:55;9.63;;;6.33;;
19951;SDS011;10137;49.406;19.484;2024-02-15T01:36:22;16.00;;;7.83;;
19951;SDS011;10137;49.406;19.484;2024-02-15T01:38:49;11.10;;;6.30;;
19951;SDS011;10137;49.406;19.484;2024-02-15T01:41:16;15.30;;;7.20;;
19951;SDS011;10137;49.406;19.484;2024-02-15T01:43:43;17.77;;;8.80;;
19951;SDS011;10137;49.406;19.484;2024-02-15T01:46:12;13.50;;;6.60;;
19951;SDS011;10137;49.406;19.484;2024-02-15T01:48:40;14.90;;;7.60;;
19951;SDS011;10137;49.406;19.484;2024-02-15T01:51:07;14.30;;;7.93;;
19951;SDS011;10137;49.406;19.484;2024-02-15T01:53:36;12.17;;;7.17;;
19951;SDS011;10137;49.406;19.484;2024-02-15T01:56:04;15.97;;;8.93;;
19951;SDS011;10137;49.406;19.484;2024-02-15T01:58:31;15.40;;;6.77;;
19951;SDS011;10137;49.406;19.484;2024-02-15T02:01:00;10.90;;;5.97;;
19951;SDS011;10137;49.406;19.484;2024-02-15T02:03:28;9.67;;;6.10;;
19951;SDS011;10137;49.406;19.484;2024-02-15T02:05:56;8.50;;;5.70;;
19951;SDS011;10137;49.406;19.484;2024-02-15T02:08:23;10.07;;;5.77;;
19951;SDS011;10137;49.406;19.484;2024-02-15T02:10:50;9.90;;;5.80;;
19951;SDS011;10137;49.406;19.484;2024-02-15T02:13:18;10.93;;;6.03;;
19951;SDS011;10137;49.406;19.484;2024-02-15T02:15:45;12.03;;;5.77;;
19951;SDS011;10137;49.406;19.484;2024-02-15T02:18:12;12.67;;;6.27;;
19951;SDS011;10137;49.406;19.484;2024-02-15T02:20:40;10.00;;;4.80;;
19951;SDS011;10137;49.406;19.484;2024-02-15T02:23:08;8.77;;;5.40;;
19951;SDS011;10137;49.406;19.484;2024-02-15T02:25:42;12.57;;;6.40;;
19951;SDS011;10137;49.406;19.484;2024-02-15T02:28:14;10.03;;;5.80;;
19951;SDS011;10137;49.406;19.484;2024-02-15T02:30:41;12.70;;;6.30;;
19951;SDS011;10137;49.406;19.484;2024-02-15T02:33:10;10.73;;;6.07;;
19951;SDS011;10137;49.406;19.484;2024-02-15T02:35:42;12.63;;;6.20;;
19951;SDS011;10137;49.406;19.484;2024-02-15T02:38:09;13.23;;;6.77;;
19951;SDS011;10137;49.406;19.484;2024-02-15T02:40:36;12.03;;;6.13;;
19951;SDS011;10137;49.406;19.484;2024-02-15T02:43:04;10.53;;;6.30;;
19951;SDS011;10137;49.406;19.484;2024-02-15T02:45:32;11.47;;;6.00;;
19951;SDS011;10137;49.406;19.484;2024-02-15T02:47:59;9.90;;;5.40;;
19951;SDS011;10137;49.406;19.484;2024-02-15T02:50:26;10.77;;;5.83;;
19951;SDS011;10137;49.406;19.484;2024-02-15T02:52:53;14.10;;;6.77;;
19951;SDS011;10137;49.406;19.484;2024-02-15T02:55:20;12.30;;;6.00;;
19951;SDS011;10137;49.406;19.484;2024-02-15T02:57:46;10.23;;;5.73;;
19951;SDS011;10137;49.406;19.484;2024-02-15T03:00:15;14.43;;;5.70;;
19951;SDS011;10137;49.406;19.484;2024-02-15T03:02:43;12.27;;;6.00;;
19951;SDS011;10137;49.406;19.484;2024-02-15T03:05:10;10.40;;;5.77;;
19951;SDS011;10137;49.406;19.484;2024-02-15T03:07:37;10.30;;;5.83;;
19951;SDS011;10137;49.406;19.484;2024-02-15T03:10:06;10.93;;;5.73;;
19951;SDS011;10137;49.406;19.484;2024-02-15T03:12:34;10.97;;;6.10;;
19951;SDS011;10137;49.406;19.484;2024-02-15T03:15:01;12.03;;;6.40;;
19951;SDS011;10137;49.406;19.484;2024-02-15T03:17:30;8.77;;;5.27;;
19951;SDS011;10137;49.406;19.484;2024-02-15T03:19:57;10.60;;;5.83;;
19951;SDS011;10137;49.406;19.484;2024-02-15T03:22:24;13.67;;;5.43;;
19951;SDS011;10137;49.406;19.484;2024-02-15T03:24:54;24.30;;;10.37;;
19951;SDS011;10137;49.406;19.484;2024-02-15T03:27:21;16.13;;;7.27;;
19951;SDS011;10137;49.406;19.484;2024-02-15T03:29:48;12.50;;;6.53;;
19951;SDS011;10137;49.406;19.484;2024-02-15T03:32:16;17.47;;;7.90;;
19951;SDS011;10137;49.406;19.484;2024-02-15T03:34:44;13.17;;;6.30;;
19951;SDS011;10137;49.406;19.484;2024-02-15T03:37:11;12.20;;;5.53;;
19951;SDS011;10137;49.406;19.484;2024-02-15T03:39:38;11.23;;;6.03;;
19951;SDS011;10137;49.406;19.484;2024-02-15T03:42:05;11.03;;;6.10;;
19951;SDS011;10137;49.406;19.484;2024-02-15T03:44:32;12.17;;;6.23;;
19951;SDS011;10137;49.406;19.484;2024-02-15T03:46:58;13.00;;;6.43;;
19951;SDS011;10137;49.406;19.484;2024-02-15T03:49:25;14.13;;;6.30;;
19951;SDS011;10137;49.406;19.484;2024-02-15T03:51:53;13.47;;;5.83;;
19951;SDS011;10137;49.406;19.484;2024-02-15T03:54:21;11.30;;;6.03;;
19951;SDS011;10137;49.406;19.484;2024-02-15T03:56:48;13.10;;;6.70;;
19951;SDS011;10137;49.406;19.484;2024-02-15T03:59:17;14.63;;;7.23;;
19951;SDS011;10137;49.406;19.484;2024-02-15T04:01:50;15.53;;;6.73;;
19951;SDS011;10137;49.406;19.484;2024-02-15T04:04:16;11.23;;;6.37;;
19951;SDS011;10137;49.406;19.484;2024-02-15T04:06:46;11.97;;;6.87;;
19951;SDS011;10137;49.406;19.484;2024-02-15T04:09:14;13.77;;;6.97;;
19951;SDS011;10137;49.406;19.484;2024-02-15T04:11:42;14.20;;;6.13;;
19951;SDS011;10137;49.406;19.484;2024-02-15T04:14:09;10.67;;;6.40;;
19951;SDS011;10137;49.406;19.484;2024-02-15T04:16:36;10.47;;;6.30;;
19951;SDS011;10137;49.406;19.484;2024-02-15T04:19:03;9.90;;;6.30;;
19951;SDS011;10137;49.406;19.484;2024-02-15T04:21:30;14.90;;;5.97;;
19951;SDS011;10137;49.406;19.484;2024-02-15T04:23:56;13.33;;;6.03;;
19951;SDS011;10137;49.406;19.484;2024-02-15T04:26:25;10.53;;;5.50;;
19951;SDS011;10137;49.406;19.484;2024-02-15T04:28:55;16.00;;;6.10;;
19951;SDS011;10137;49.406;19.484;2024-02-15T04:31:22;10.63;;;5.50;;
19951;SDS011;10137;49.406;19.484;2024-02-15T04:33:51;11.53;;;6.03;;
19951;SDS011;10137;49.406;19.484;2024-02-15T04:36:18;15.50;;;6.30;;
19951;SDS011;10137;49.406;19.484;2024-02-15T04:38:48;9.10;;;5.83;;
19951;SDS011;10137;49.406;19.484;2024-02-15T04:41:16;10.93;;;6.53;;
19951;SDS011;10137;49.406;19.484;2024-02-15T04:43:49;15.63;;;8.10;;
19951;SDS011;10137;49.406;19.484;2024-02-15T04:46:16;22.67;;;10.23;;
19951;SDS011;10137;49.406;19.484;2024-02-15T04:48:45;21.40;;;10.40;;
19951;SDS011;10137;49.406;19.484;2024-02-15T04:51:14;17.53;;;7.93;;
19951;SDS011;10137;49.406;19.484;2024-02-15T04:53:41;17.60;;;6.93;;
19951;SDS011;10137;49.406;19.484;2024-02-15T04:56:08;12.77;;;7.13;;
19951;SDS011;10137;49.406;19.484;2024-02-15T04:58:38;14.60;;;7.73;;
19951;SDS011;10137;49.406;19.484;2024-02-15T05:01:12;13.50;;;7.43;;
19951;SDS011;10137;49.406;19.484;2024-02-15T05:03:39;14.07;;;7.10;;
19951;SDS011;10137;49.406;19.484;2024-02-15T05:06:07;12.47;;;7.10;;
19951;SDS011;10137;49.406;19.484;2024-02-15T05:08:34;14.13;;;7.97;;
19951;SDS011;10137;49.406;19.484;2024-02-15T05:11:03;21.97;;;9.63;;
19951;SDS011;10137;49.406;19.484;2024-02-15T05:13:31;16.43;;;8.33;;
19951;SDS011;10137;49.406;19.484;2024-02-15T05:15:58;14.87;;;7.97;;
19951;SDS011;10137;49.406;19.484;2024-02-15T05:18:27;13.37;;;7.37;;
19951;SDS011;10137;49.406;19.484;2024-02-15T05:20:55;14.57;;;8.10;;
19951;SDS011;10137;49.406;19.484;2024-02-15T05:23:23;19.37;;;8.33;;
19951;SDS011;10137;49.406;19.484;2024-02-15T05:25:50;12.73;;;7.80;;
19951;SDS011;10137;49.406;19.484;2024-02-15T05:28:19;13.03;;;7.50;;
19951;SDS011;10137;49.406;19.484;2024-02-15T05:30:51;15.83;;;7.33;;
19951;SDS011;10137;49.406;19.484;2024-02-15T05:33:37;17.50;;;7.67;;
19951;SDS011;10137;49.406;19.484;2024-02-15T05:36:05;13.97;;;7.97;;
19951;SDS011;10137;49.406;19.484;2024-02-15T05:38:33;16.13;;;8.03;;
19951;SDS011;10137;49.406;19.484;2024-02-15T05:41:00;15.10;;;7.77;;
19951;SDS011;10137;49.406;19.484;2024-02-15T05:43:28;13.70;;;8.27;;
19951;SDS011;10137;49.406;19.484;2024-02-15T05:45:55;14.93;;;8.37;;
19951;SDS011;10137;49.406;19.484;2024-02-15T05:48:23;15.33;;;8.27;;
19951;SDS011;10137;49.406;19.484;2024-02-15T05:50:51;12.17;;;7.37;;
19951;SDS011;10137;49.406;19.484;2024-02-15T05:53:19;13.10;;;7.00;;
19951;SDS011;10137;49.406;19.484;2024-02-15T05:55:46;17.77;;;7.63;;
19951;SDS011;10137;49.406;19.484;2024-02-15T05:58:14;14.67;;;7.30;;
19951;SDS011;10137;49.406;19.484;2024-02-15T06:00:42;12.73;;;7.60;;
19951;SDS011;10137;49.406;19.484;2024-02-15T06:03:09;15.23;;;8.47;;
19951;SDS011;10137;49.406;19.484;2024-02-15T06:05:37;19.33;;;7.97;;
19951;SDS011;10137;49.406;19.484;2024-02-15T06:08:06;16.33;;;7.83;;
19951;SDS011;10137;49.406;19.484;2024-02-15T06:10:33;20.13;;;8.73;;
19951;SDS011;10137;49.406;19.484;2024-02-15T06:13:00;17.37;;;8.93;;
19951;SDS011;10137;49.406;19.484;2024-02-15T06:15:26;14.73;;;8.23;;
19951;SDS011;10137;49.406;19.484;2024-02-15T06:17:53;21.10;;;8.07;;
19951;SDS011;10137;49.406;19.484;2024-02-15T06:20:20;17.57;;;8.87;;
19951;SDS011;10137;49.406;19.484;2024-02-15T06:22:47;16.70;;;9.70;;
19951;SDS011;10137;49.406;19.484;2024-02-15T06:25:17;18.63;;;8.63;;
19951;SDS011;10137;49.406;19.484;2024-02-15T06:27:46;19.03;;;9.33;;
19951;SDS011;10137;49.406;19.484;2024-02-15T06:30:13;21.53;;;9.73;;
19951;SDS011;10137;49.406;19.484;2024-02-15T06:32:59;20.40;;;9.97;;
19951;SDS011;10137;49.406;19.484;2024-02-15T06:35:43;23.77;;;10.80;;
19951;SDS011;10137;49.406;19.484;2024-02-15T06:38:27;18.83;;;9.53;;
19951;SDS011;10137;49.406;19.484;2024-02-15T06:41:13;18.07;;;9.47;;
19951;SDS011;10137;49.406;19.484;2024-02-15T06:43:40;17.20;;;9.13;;
19951;SDS011;10137;49.406;19.484;2024-02-15T06:46:06;21.00;;;9.30;;
19951;SDS011;10137;49.406;19.484;2024-02-15T06:48:35;20.93;;;9.43;;
19951;SDS011;10137;49.406;19.484;2024-02-15T06:51:03;22.60;;;10.23;;
19951;SDS011;10137;49.406;19.484;2024-02-15T06:53:30;24.83;;;10.80;;
19951;SDS011;10137;49.406;19.484;2024-02-15T06:55:57;25.30;;;11.10;;
19951;SDS011;10137;49.406;19.484;2024-02-15T06:58:25;25.17;;;11.93;;
19951;SDS011;10137;49.406;19.484;2024-02-15T07:00:53;22.80;;;11.13;;
19951;SDS011;10137;49.406;19.484;2024-02-15T07:03:20;21.50;;;11.50;;
19951;SDS011;10137;49.406;19.484;2024-02-15T07:05:48;22.03;;;12.17;;
19951;SDS011;10137;49.406;19.484;2024-02-15T07:08:15;21.97;;;11.60;;
19951;SDS011;10137;49.406;19.484;2024-02-15T07:10:42;20.97;;;10.27;;
19951;SDS011;10137;49.406;19.484;2024-02-15T07:13:09;17.40;;;9.73;;
19951;SDS011;10137;49.406;19.484;2024-02-15T07:15:38;18.13;;;9.50;;
19951;SDS011;10137;49.406;19.484;2024-02-15T07:18:04;18.17;;;9.73;;
19951;SDS011;10137;49.406;19.484;2024-02-15T07:20:32;17.00;;;9.43;;
19951;SDS011;10137;49.406;19.484;2024-02-15T07:22:59;18.23;;;10.17;;
19951;SDS011;10137;49.406;19.484;2024-02-15T07:25:26;18.73;;;9.93;;
19951;SDS011;10137;49.406;19.484;2024-02-15T07:27:53;17.53;;;9.03;;
19951;SDS011;10137;49.406;19.484;2024-02-15T07:30:21;19.97;;;9.30;;
19951;SDS011;10137;49.406;19.484;2024-02-15T07:32:50;16.40;;;8.37;;
19951;SDS011;10137;49.406;19.484;2024-02-15T07:35:17;14.37;;;8.43;;
19951;SDS011;10137;49.406;19.484;2024-02-15T07:37:51;27.23;;;14.17;;
19951;SDS011;10137;49.406;19.484;2024-02-15T07:40:20;25.73;;;14.10;;
19951;SDS011;10137;49.406;19.484;2024-02-15T07:42:47;21.97;;;12.37;;
19951;SDS011;10137;49.406;19.484;2024-02-15T07:45:17;20.80;;;11.50;;
19951;SDS011;10137;49.406;19.484;2024-02-15T07:47:44;21.83;;;10.17;;
19951;SDS011;10137;49.406;19.484;2024-02-15T07:50:14;25.07;;;9.13;;
19951;SDS011;10137;49.406;19.484;2024-02-15T07:52:45;24.77;;;12.77;;
19951;SDS011;10137;49.406;19.484;2024-02-15T07:55:13;16.70;;;11.17;;
19951;SDS011;10137;49.406;19.484;2024-02-15T07:57:40;25.17;;;12.90;;
19951;SDS011;10137;49.406;19.484;2024-02-15T08:00:07;26.43;;;16.33;;
19951;SDS011;10137;49.406;19.484;2024-02-15T08:02:37;29.50;;;17.17;;
19951;SDS011;10137;49.406;19.484;2024-02-15T08:05:05;30.33;;;17.37;;
19951;SDS011;10137;49.406;19.484;2024-02-15T08:07:36;30.87;;;18.57;;
19951;SDS011;10137;49.406;19.484;2024-02-15T08:10:04;30.23;;;17.77;;
19951;SDS011;10137;49.406;19.484;2024-02-15T08:12:37;35.10;;;18.60;;
19951;SDS011;10137;49.406;19.484;2024-02-15T08:15:05;32.87;;;17.27;;
19951;SDS011;10137;49.406;19.484;2024-02-15T08:17:36;33.20;;;18.50;;
19951;SDS011;10137;49.406;19.484;2024-02-15T08:20:05;36.10;;;18.10;;
19951;SDS011;10137;49.406;19.484;2024-02-15T08:22:33;34.83;;;19.00;;
19951;SDS011;10137;49.406;19.484;2024-02-15T08:25:05;29.63;;;16.20;;
19951;SDS011;10137;49.406;19.484;2024-02-15T08:27:35;24.10;;;14.00;;
19951;SDS011;10137;49.406;19.484;2024-02-15T08:30:06;18.40;;;10.43;;
19951;SDS011;10137;49.406;19.484;2024-02-15T08:32:35;36.93;;;22.13;;
19951;SDS011;10137;49.406;19.484;2024-02-15T08:35:02;24.63;;;14.57;;
19951;SDS011;10137;49.406;19.484;2024-02-15T08:37:29;30.67;;;14.17;;
19951;SDS011;10137;49.406;19.484;2024-02-15T08:39:57;23.87;;;13.70;;
19951;SDS011;10137;49.406;19.484;2024-02-15T08:42:26;22.03;;;11.67;;
19951;SDS011;10137;49.406;19.484;2024-02-15T08:44:53;25.97;;;10.73;;
19951;SDS011;10137;49.406;19.484;2024-02-15T08:47:20;21.77;;;10.77;;
19951;SDS011;10137;49.406;19.484;2024-02-15T08:49:47;23.53;;;9.67;;
19951;SDS011;10137;49.406;19.484;2024-02-15T08:52:14;26.07;;;9.43;;
19951;SDS011;10137;49.406;19.484;2024-02-15T08:54:43;23.40;;;9.63;;
19951;SDS011;10137;49.406;19.484;2024-02-15T08:57:10;13.47;;;7.47;;
19951;SDS011;10137;49.406;19.484;2024-02-15T08:59:40;14.90;;;7.10;;
19951;SDS011;10137;49.406;19.484;2024-02-15T09:02:07;20.13;;;7.47;;
19951;SDS011;10137;49.406;19.484;2024-02-15T09:04:34;21.10;;;7.83;;
19951;SDS011;10137;49.406;19.484;2024-02-15T09:07:01;17.87;;;7.37;;
19951;SDS011;10137;49.406;19.484;2024-02-15T09:09:29;11.97;;;6.40;;
19951;SDS011;10137;49.406;19.484;2024-02-15T09:11:56;19.03;;;7.37;;
19951;SDS011;10137;49.406;19.484;2024-02-15T09:14:23;16.30;;;6.90;;
19951;SDS011;10137;49.406;19.484;2024-02-15T09:16:51;8.60;;;5.33;;
19951;SDS011;10137;49.406;19.484;2024-02-15T09:19:18;10.93;;;5.17;;
19951;SDS011;10137;49.406;19.484;2024-02-15T09:21:45;14.67;;;5.00;;
19951;SDS011;10137;49.406;19.484;2024-02-15T09:24:12;8.60;;;4.70;;
19951;SDS011;10137;49.406;19.484;2024-02-15T09:26:41;13.30;;;5.17;;
19951;SDS011;10137;49.406;19.484;2024-02-15T09:29:08;10.43;;;4.70;;
19951;SDS011;10137;49.406;19.484;2024-02-15T09:31:35;10.17;;;4.17;;
19951;SDS011;10137;49.406;19.484;2024-02-15T09:34:03;5.77;;;3.77;;
19951;SDS011;10137;49.406;19.484;2024-02-15T09:36:33;8.87;;;4.00;;
19951;SDS011;10137;49.406;19.484;2024-02-15T09:39:00;6.23;;;3.60;;
19951;SDS011;10137;49.406;19.484;2024-02-15T09:41:27;8.03;;;3.73;;
19951;SDS011;10137;49.406;19.484;2024-02-15T09:43:54;6.40;;;3.33;;
19951;SDS011;10137;49.406;19.484;2024-02-15T09:46:21;6.67;;;4.00;;
19951;SDS011;10137;49.406;19.484;2024-02-15T09:48:49;9.07;;;4.40;;
19951;SDS011;10137;49.406;19.484;2024-02-15T09:51:24;7.50;;;4.47;;
19951;SDS011;10137;49.406;19.484;2024-02-15T09:53:52;7.77;;;4.77;;
19951;SDS011;10137;49.406;19.484;2024-02-15T09:56:22;10.50;;;5.37;;
19951;SDS011;10137;49.406;19.484;2024-02-15T09:58:51;7.67;;;3.73;;
19951;SDS011;10137;49.406;19.484;2024-02-15T10:01:18;7.57;;;3.80;;
19951;SDS011;10137;49.406;19.484;2024-02-15T10:03:49;6.10;;;3.27;;
19951;SDS011;10137;49.406;19.484;2024-02-15T10:06:16;5.40;;;3.63;;
19951;SDS011;10137;49.406;19.484;2024-02-15T10:08:45;7.67;;;3.90;;
19951;SDS011;10137;49.406;19.484;2024-02-15T10:11:13;7.63;;;3.97;;
19951;SDS011;10137;49.406;19.484;2024-02-15T10:13:41;9.00;;;4.47;;
19951;SDS011;10137;49.406;19.484;2024-02-15T10:16:16;12.03;;;5.20;;
19951;SDS011;10137;49.406;19.484;2024-02-15T10:18:44;8.27;;;4.50;;
19951;SDS011;10137;49.406;19.484;2024-02-15T10:21:23;8.00;;;4.10;;
19951;SDS011;10137;49.406;19.484;2024-02-15T10:24:03;6.47;;;3.40;;
19951;SDS011;10137;49.406;19.484;2024-02-15T10:26:31;8.60;;;3.40;;
19951;SDS011;10137;49.406;19.484;2024-02-15T10:29:06;4.70;;;2.60;;
19951;SDS011;10137;49.406;19.484;2024-02-15T10:31:36;9.37;;;2.27;;
19951;SDS011;10137;49.406;19.484;2024-02-15T10:34:05;8.43;;;3.40;;
19951;SDS011;10137;49.406;19.484;2024-02-15T10:36:32;6.57;;;2.40;;
19951;SDS011;10137;49.406;19.484;2024-02-15T10:39:17;10.40;;;4.10;;
19951;SDS011;10137;49.406;19.484;2024-02-15T10:41:45;4.73;;;3.03;;
19951;SDS011;10137;49.406;19.484;2024-02-15T10:44:17;11.13;;;6.63;;
19951;SDS011;10137;49.406;19.484;2024-02-15T10:46:48;3.27;;;2.20;;
19951;SDS011;10137;49.406;19.484;2024-02-15T10:49:20;5.53;;;2.97;;
19951;SDS011;10137;49.406;19.484;2024-02-15T10:51:49;20.53;;;8.27;;
19951;SDS011;10137;49.406;19.484;2024-02-15T10:54:26;7.50;;;3.77;;
19951;SDS011;10137;49.406;19.484;2024-02-15T10:57:09;6.57;;;2.37;;
19951;SDS011;10137;49.406;19.484;2024-02-15T10:59:38;8.53;;;3.20;;
19951;SDS011;10137;49.406;19.484;2024-02-15T11:02:11;6.60;;;1.80;;
19951;SDS011;10137;49.406;19.484;2024-02-15T11:04:50;5.73;;;1.43;;
19951;SDS011;10137;49.406;19.484;2024-02-15T11:07:21;7.27;;;1.80;;
19951;SDS011;10137;49.406;19.484;2024-02-15T11:09:52;9.20;;;1.47;;
19951;SDS011;10137;49.406;19.484;2024-02-15T11:12:21;5.17;;;1.40;;
19951;SDS011;10137;49.406;19.484;2024-02-15T11:14:48;4.27;;;1.63;;
19951;SDS011;10137;49.406;19.484;2024-02-15T11:23:23;10.77;;;2.80;;
19951;SDS011;10137;49.406;19.484;2024-02-15T11:25:53;7.90;;;1.80;;
19951;SDS011;10137;49.406;19.484;2024-02-15T11:28:39;6.27;;;1.67;;
19951;SDS011;10137;49.406;19.484;2024-02-15T11:40:15;6.40;;;1.77;;
19951;SDS011;10137;49.406;19.484;2024-02-15T11:42:44;12.20;;;5.17;;
19951;SDS011;10137;49.406;19.484;2024-02-15T11:45:12;4.87;;;1.87;;
19951;SDS011;10137;49.406;19.484;2024-02-15T11:47:43;9.27;;;2.63;;
19951;SDS011;10137;49.406;19.484;2024-02-15T11:50:15;8.30;;;2.23;;
19951;SDS011;10137;49.406;19.484;2024-02-15T11:52:43;8.77;;;2.10;;
19951;SDS011;10137;49.406;19.484;2024-02-15T11:55:10;11.37;;;2.70;;
19951;SDS011;10137;49.406;19.484;2024-02-15T11:57:38;6.37;;;2.40;;
19951;SDS011;10137;49.406;19.484;2024-02-15T12:00:21;5.70;;;2.20;;
19951;SDS011;10137;49.406;19.484;2024-02-15T12:03:06;26.07;;;3.47;;
19951;SDS011;10137;49.406;19.484;2024-02-15T12:05:51;5.57;;;2.47;;
19951;SDS011;10137;49.406;19.484;2024-02-15T12:08:35;8.97;;;2.70;;
19951;SDS011;10137;49.406;19.484;2024-02-15T12:11:20;6.67;;;2.50;;
19951;SDS011;10137;49.406;19.484;2024-02-15T12:14:04;10.87;;;2.63;;
19951;SDS011;10137;49.406;19.484;2024-02-15T12:16:59;7.20;;;1.70;;
19951;SDS011;10137;49.406;19.484;2024-02-15T12:19:44;5.17;;;1.97;;
19951;SDS011;10137;49.406;19.484;2024-02-15T12:22:13;3.40;;;1.83;;
19951;SDS011;10137;49.406;19.484;2024-02-15T12:24:40;2.77;;;1.50;;
19951;SDS011;10137;49.406;19.484;2024-02-15T12:27:07;7.03;;;2.40;;
19951;SDS011;10137;49.406;19.484;2024-02-15T12:29:34;3.90;;;1.70;;
19951;SDS011;10137;49.406;19.484;2024-02-15T12:32:03;6.10;;;1.80;;
19951;SDS011;10137;49.406;19.484;2024-02-15T12:34:30;5.23;;;1.70;;
19951;SDS011;10137;49.406;19.484;2024-02-15T12:37:06;4.70;;;1.90;;
19951;SDS011;10137;49.406;19.484;2024-02-15T12:39:34;3.80;;;1.50;;
19951;SDS011;10137;49.406;19.484;2024-02-15T12:42:02;7.67;;;2.13;;
19951;SDS011;10137;49.406;19.484;2024-02-15T12:44:32;2.13;;;1.40;;
19951;SDS011;10137;49.406;19.484;2024-02-15T12:47:00;3.17;;;1.60;;
19951;SDS011;10137;49.406;19.484;2024-02-15T12:49:30;8.10;;;2.00;;
19951;SDS011;10137;49.406;19.484;2024-02-15T12:55:12;5.23;;;1.67;;
19951;SDS011;10137;49.406;19.484;2024-02-15T12:57:40;3.83;;;1.60;;
19951;SDS011;10137;49.406;19.484;2024-02-15T13:00:11;1.90;;;1.40;;
19951;SDS011;10137;49.406;19.484;2024-02-15T13:02:43;9.20;;;2.00;;
19951;SDS011;10137;49.406;19.484;2024-02-15T13:05:12;8.43;;;2.00;;
19951;SDS011;10137;49.406;19.484;2024-02-15T13:07:39;5.77;;;1.90;;
19951;SDS011;10137;49.406;19.484;2024-02-15T13:10:06;16.73;;;3.10;;
19951;SDS011;10137;49.406;19.484;2024-02-15T13:12:34;5.80;;;1.83;;
19951;SDS011;10137;49.406;19.484;2024-02-15T13:15:03;5.70;;;2.63;;
19951;SDS011;10137;49.406;19.484;2024-02-15T13:17:31;8.60;;;2.60;;
19951;SDS011;10137;49.406;19.484;2024-02-15T13:19:59;4.10;;;2.30;;
19951;SDS011;10137;49.406;19.484;2024-02-15T13:22:32;4.53;;;1.83;;
19951;SDS011;10137;49.406;19.484;2024-02-15T13:25:01;9.83;;;2.40;;
19951;SDS011;10137;49.406;19.484;2024-02-15T13:27:29;5.17;;;2.27;;
19951;SDS011;10137;49.406;19.484;2024-02-15T13:29:56;12.03;;;2.37;;
19951;SDS011;10137;49.406;19.484;2024-02-15T13:32:23;3.47;;;1.73;;
19951;SDS011;10137;49.406;19.484;2024-02-15T13:34:50;2.63;;;1.40;;
19951;SDS011;10137;49.406;19.484;2024-02-15T13:37:21;6.17;;;2.77;;
19951;SDS011;10137;49.406;19.484;2024-02-15T13:39:50;7.57;;;2.97;;
19951;SDS011;10137;49.406;19.484;2024-02-15T13:42:17;4.97;;;2.17;;
19951;SDS011;10137;49.406;19.484;2024-02-15T13:44:44;9.80;;;2.70;;
19951;SDS011;10137;49.406;19.484;2024-02-15T13:47:13;3.17;;;1.93;;
19951;SDS011;10137;49.406;19.484;2024-02-15T13:49:41;8.47;;;2.13;;
19951;SDS011;10137;49.406;19.484;2024-02-15T13:52:08;3.43;;;1.63;;
19951;SDS011;10137;49.406;19.484;2024-02-15T13:54:36;7.67;;;1.87;;
19951;SDS011;10137;49.406;19.484;2024-02-15T13:57:05;19.63;;;2.10;;
19951;SDS011;10137;49.406;19.484;2024-02-15T13:59:32;4.90;;;1.87;;
19951;SDS011;10137;49.406;19.484;2024-02-15T14:01:59;3.90;;;1.80;;
19951;SDS011;10137;49.406;19.484;2024-02-15T14:04:28;5.40;;;1.63;;
19951;SDS011;10137;49.406;19.484;2024-02-15T14:06:57;5.33;;;1.77;;
19951;SDS011;10137;49.406;19.484;2024-02-15T14:09:24;5.03;;;1.60;;
19951;SDS011;10137;49.406;19.484;2024-02-15T14:11:52;6.20;;;1.90;;
19951;SDS011;10137;49.406;19.484;2024-02-15T14:14:21;12.37;;;2.00;;
19951;SDS011;10137;49.406;19.484;2024-02-15T14:16:48;2.23;;;1.40;;
19951;SDS011;10137;49.406;19.484;2024-02-15T14:19:15;7.47;;;1.93;;
19951;SDS011;10137;49.406;19.484;2024-02-15T14:21:42;7.90;;;2.57;;
19951;SDS011;10137;49.406;19.484;2024-02-15T14:24:10;5.03;;;2.30;;
19951;SDS011;10137;49.406;19.484;2024-02-15T14:26:37;3.87;;;2.20;;
19951;SDS011;10137;49.406;19.484;2024-02-15T14:29:04;8.27;;;2.73;;
19951;SDS011;10137;49.406;19.484;2024-02-15T14:31:33;6.17;;;2.23;;
19951;SDS011;10137;49.406;19.484;2024-02-15T14:34:17;7.00;;;3.20;;
19951;SDS011;10137;49.406;19.484;2024-02-15T14:36:45;6.90;;;3.73;;
19951;SDS011;10137;49.406;19.484;2024-02-15T14:39:12;6.43;;;3.63;;
19951;SDS011;10137;49.406;19.484;2024-02-15T14:41:40;7.27;;;3.90;;
19951;SDS011;10137;49.406;19.484;2024-02-15T14:44:08;9.87;;;3.87;;
19951;SDS011;10137;49.406;19.484;2024-02-15T14:46:36;7.77;;;3.50;;
19951;SDS011;10137;49.406;19.484;2024-02-15T14:49:03;8.23;;;4.17;;
19951;SDS011;10137;49.406;19.484;2024-02-15T14:51:31;7.23;;;4.27;;